createdAt,value
2024-05-09T00:02:33.129Z,100653.44
2024-05-09T00:05:05.199Z,100661.06
2024-05-09T00:07:37.179Z,100654.63
2024-05-09T00:10:22.089Z,100656.59
2024-05-09T00:13:00.511Z,100656.19
2024-05-09T00:15:33.964Z,100655.38
2024-05-09T00:18:08.168Z,100648.09
2024-05-09T00:20:41.383Z,100645.66
2024-05-09T00:23:14.399Z,100636.38
2024-05-09T00:25:50.320Z,100633.16
2024-05-09T00:28:22.170Z,100631.53
2024-05-09T00:30:54.084Z,100631.88
2024-05-09T00:33:26.698Z,100627.03
2024-05-09T00:35:58.723Z,100612.47
2024-05-09T00:38:30.902Z,100626.59
2024-05-09T00:41:05.384Z,100619.31
2024-05-09T00:43:41.676Z,100616.88
2024-05-09T00:46:15.117Z,100621.25
2024-05-09T00:48:47.350Z,100611.16
2024-05-09T00:51:19.621Z,100597.06
2024-05-09T00:53:52.847Z,100591.81
2024-05-09T00:56:29.393Z,100596.28
2024-05-09T00:59:01.827Z,100595.03
2024-05-09T01:01:36.214Z,100585.75
2024-05-09T01:04:08.801Z,100589.75
2024-05-09T01:06:41.128Z,100583.72
2024-05-09T01:09:13.599Z,100584.06
2024-05-09T01:11:48.348Z,100580.81
2024-05-09T01:14:20.511Z,100573.56
2024-05-09T01:16:53.053Z,100565.47
2024-05-09T01:19:32.724Z,100561.84
2024-05-09T01:22:05.113Z,100563.44
2024-05-09T01:24:40.715Z,100559.78
2024-05-09T01:27:12.724Z,100551.34
2024-05-09T01:29:45.028Z,100555.72
2024-05-09T01:32:17.005Z,100550.09
2024-05-09T01:34:48.987Z,100544.81
2024-05-09T01:37:20.883Z,100547.63
2024-05-09T01:39:55.406Z,100538.00
2024-05-09T01:42:27.715Z,100530.31
2024-05-09T01:44:59.516Z,100533.94
2024-05-09T01:47:31.668Z,100530.31
2024-05-09T01:50:06.620Z,100530.69
2024-05-09T01:52:41.294Z,100527.06
2024-05-09T01:55:16.359Z,100531.88
2024-05-09T01:57:48.524Z,100540.31
2024-05-09T02:00:30.252Z,100538.34
2024-05-09T02:03:14.700Z,100538.72
2024-05-09T02:05:50.591Z,100547.19
2024-05-09T02:08:24.948Z,100552.44
2024-05-09T02:11:00.690Z,100543.13
2024-05-09T02:13:32.711Z,100556.44
2024-05-09T02:16:04.602Z,100544.38
2024-05-09T02:18:36.717Z,100551.19
2024-05-09T02:21:08.992Z,100553.56
2024-05-09T02:23:41.165Z,100557.19
2024-05-09T02:26:16.316Z,100554.72
2024-05-09T02:28:48.655Z,100563.56
2024-05-09T02:31:20.609Z,100559.13
2024-05-09T02:33:49.703Z,100560.31
2024-05-09T02:36:23.223Z,100571.13
2024-05-09T02:38:52.149Z,100561.44
2024-05-09T02:41:27.871Z,100576.34
2024-05-09T02:43:56.696Z,100584.00
2024-05-09T02:46:28.599Z,100573.91
2024-05-09T02:49:00.246Z,100588.00
2024-05-09T02:51:30.183Z,100589.19
2024-05-09T02:54:01.834Z,100577.13
2024-05-09T02:56:34.038Z,100575.09
2024-05-09T02:59:06.210Z,100573.91
2024-05-09T03:01:35.010Z,100566.66
2024-05-09T03:04:07.023Z,100574.28
2024-05-09T03:06:40.807Z,100570.66
2024-05-09T03:09:13.604Z,100575.47
2024-05-09T03:11:46.490Z,100571.84
2024-05-09T03:14:20.866Z,100566.59
2024-05-09T03:16:49.792Z,100571.84
2024-05-09T03:19:22.184Z,100573.47
2024-05-09T03:21:50.923Z,100581.91
2024-05-09T03:24:22.823Z,100580.72
2024-05-09T03:26:54.743Z,100573.06
2024-05-09T03:29:26.735Z,100568.28
2024-05-09T03:31:56.262Z,100574.72
2024-05-09T03:34:28.026Z,100573.53
2024-05-09T03:37:00.321Z,100575.97
2024-05-09T03:39:32.141Z,100563.50
2024-05-09T03:42:07.939Z,100559.47
2024-05-09T03:44:39.913Z,100571.59
2024-05-09T03:47:08.907Z,100570.41
2024-05-09T03:49:41.197Z,100574.84
2024-05-09T03:52:10.442Z,100574.44
2024-05-09T03:54:50.135Z,100586.19
2024-05-09T03:57:22.066Z,100577.34
2024-05-09T03:59:53.667Z,100582.59
2024-05-09T04:02:22.630Z,100591.50
2024-05-09T04:04:54.658Z,100594.75
2024-05-09T04:07:23.705Z,100596.38
2024-05-09T04:09:55.670Z,100596.81
2024-05-09T04:12:27.389Z,100598.06
2024-05-09T04:14:59.304Z,100606.13
2024-05-09T04:17:28.884Z,100598.94
2024-05-09T04:20:01.132Z,100600.53
2024-05-09T04:22:30.173Z,100604.63
2024-05-09T04:25:01.631Z,100619.16
2024-05-09T04:27:34.016Z,100607.50
2024-05-09T04:30:08.012Z,100616.75
2024-05-09T04:32:41.461Z,100617.19
2024-05-09T04:35:14.255Z,100612.00
2024-05-09T04:37:44.480Z,100618.88
2024-05-09T04:40:32.696Z,100605.22
2024-05-09T04:43:08.110Z,100604.81
2024-05-09T04:45:40.116Z,100607.28
2024-05-09T04:48:09.886Z,100602.44
2024-05-09T04:50:42.028Z,100614.59
2024-05-09T04:53:15.747Z,100616.63
2024-05-09T04:55:48.587Z,100619.09
2024-05-09T04:58:23.435Z,100622.34
2024-05-09T05:00:52.712Z,100614.28
2024-05-09T05:03:24.944Z,100612.75
2024-05-09T05:05:54.520Z,100618.78
2024-05-09T05:08:28.387Z,100618.03
2024-05-09T05:10:57.368Z,100612.84
2024-05-09T05:13:36.712Z,100617.38
2024-05-09T05:16:08.484Z,100619.00
2024-05-09T05:18:40.081Z,100615.38
2024-05-09T05:21:09.349Z,100611.81
2024-05-09T05:23:41.582Z,100609.84
2024-05-09T05:26:10.527Z,100616.34
2024-05-09T05:28:45.272Z,100616.41
2024-05-09T05:31:15.824Z,100606.34
2024-05-09T05:33:48.416Z,100602.38
2024-05-09T05:36:17.238Z,100603.63
2024-05-09T05:38:49.673Z,100605.69
2024-05-09T05:41:19.108Z,100608.53
2024-05-09T05:43:54.191Z,100597.28
2024-05-09T05:46:22.873Z,100597.31
2024-05-09T05:48:55.174Z,100601.81
2024-05-09T05:51:24.000Z,100597.03
2024-05-09T05:53:55.623Z,100589.78
2024-05-09T05:56:25.303Z,100595.47
2024-05-09T05:59:00.122Z,100590.72
2024-05-09T06:01:29.686Z,100593.56
2024-05-09T06:04:01.546Z,100592.81
2024-05-09T06:06:30.545Z,100595.66
2024-05-09T06:09:01.874Z,100596.50
2024-05-09T06:11:30.788Z,100596.56
2024-05-09T06:14:05.849Z,100604.66
2024-05-09T06:16:34.846Z,100588.16
2024-05-09T06:19:06.609Z,100603.94
2024-05-09T06:21:35.706Z,100593.84
2024-05-09T06:24:07.559Z,100604.00
2024-05-09T06:26:36.358Z,100599.56
2024-05-09T06:29:10.828Z,100600.81
2024-05-09T06:31:41.994Z,100605.31
2024-05-09T06:34:14.723Z,100593.19
2024-05-09T06:36:43.760Z,100593.25
2024-05-09T06:39:15.784Z,100583.97
2024-05-09T06:41:44.667Z,100575.91
2024-05-09T06:44:19.376Z,100578.81
2024-05-09T06:46:48.725Z,100581.66
2024-05-09T06:49:20.495Z,100582.91
2024-05-09T06:51:49.262Z,100572.41
2024-05-09T06:54:21.247Z,100570.81
2024-05-09T06:56:49.818Z,100567.22
2024-05-09T06:59:24.883Z,100570.91
2024-05-09T07:01:53.957Z,100570.50
2024-05-09T07:04:26.159Z,100572.13
2024-05-09T07:06:54.865Z,100567.69
2024-05-09T07:09:26.663Z,100562.06
2024-05-09T07:11:55.503Z,100564.13
2024-05-09T07:14:30.575Z,100566.16
2024-05-09T07:16:59.748Z,100555.28
2024-05-09T07:19:31.903Z,100558.13
2024-05-09T07:22:01.208Z,100556.09
2024-05-09T07:24:32.753Z,100561.75
2024-05-09T07:27:01.484Z,100553.31
2024-05-09T07:29:38.513Z,100546.84
2024-05-09T07:32:09.838Z,100550.09
2024-05-09T07:34:42.874Z,100546.88
2024-05-09T07:37:14.017Z,100557.03
2024-05-09T07:39:47.439Z,100556.25
2024-05-09T07:42:16.451Z,100547.75
2024-05-09T07:44:52.090Z,100554.69
2024-05-09T07:48:32.058Z,100544.56
2024-05-09T07:53:34.658Z,100550.66
2024-05-09T07:55:39.695Z,100549.84
2024-05-09T07:58:08.724Z,100558.38
2024-05-09T08:00:43.803Z,100561.59
2024-05-09T08:03:13.396Z,100562.00
2024-05-09T08:05:45.597Z,100570.94
2024-05-09T08:08:14.667Z,100562.03
2024-05-09T08:10:47.617Z,100559.19
2024-05-09T08:13:17.728Z,100570.94
2024-05-09T08:15:53.807Z,100566.91
2024-05-09T08:18:29.797Z,100558.81
2024-05-09T08:21:03.593Z,100560.44
2024-05-09T08:23:32.725Z,100558.41
2024-05-09T08:26:04.507Z,100559.63
2024-05-09T08:28:33.254Z,100553.59
2024-05-09T08:31:08.449Z,100550.34
2024-05-09T08:33:37.573Z,100549.16
2024-05-09T08:36:10.137Z,100552.41
2024-05-09T08:38:39.709Z,100544.69
2024-05-09T08:41:12.713Z,100540.66
2024-05-09T08:43:43.601Z,100545.53
2024-05-09T08:46:19.181Z,100545.13
2024-05-09T08:48:52.820Z,100534.63
2024-05-09T08:51:25.276Z,100534.25
2024-05-09T08:54:06.937Z,100529.38
2024-05-09T08:56:52.393Z,100528.16
2024-05-09T08:59:35.771Z,100516.84
2024-05-09T09:08:18.900Z,100507.56
2024-05-09T09:10:53.860Z,100507.97
2024-05-09T09:13:38.384Z,100499.47
2024-05-09T09:16:10.094Z,100503.94
2024-05-09T09:25:39.468Z,100491.38
2024-05-09T09:28:15.550Z,100484.91
2024-05-09T09:30:56.388Z,100481.69
2024-05-09T09:33:36.674Z,100480.06
2024-05-09T09:36:11.190Z,100473.59
2024-05-09T09:38:44.709Z,100464.69
2024-05-09T09:41:17.538Z,100474.81
2024-05-09T09:43:49.223Z,100477.63
2024-05-09T09:46:19.811Z,100465.91
2024-05-09T09:48:52.435Z,100465.91
2024-05-09T09:51:25.827Z,100462.66
2024-05-09T09:53:58.133Z,100467.53
2024-05-09T09:56:30.711Z,100461.44
2024-05-09T09:59:07.572Z,100454.16
2024-05-09T10:01:36.970Z,100451.72
2024-05-09T10:04:09.302Z,100446.47
2024-05-09T10:06:45.392Z,100445.66
2024-05-09T10:09:18.894Z,100439.59
2024-05-09T10:11:51.979Z,100435.53
2024-05-09T10:14:26.872Z,100435.16
2024-05-09T10:17:06.018Z,100425.44
2024-05-09T10:19:37.395Z,100434.75
2024-05-09T10:22:09.414Z,100421.81
2024-05-09T10:24:52.272Z,100413.28
2024-05-09T10:27:27.973Z,100406.41
2024-05-09T10:30:02.820Z,100400.31
2024-05-09T10:32:40.550Z,100397.06
2024-05-09T10:35:15.483Z,100396.69
2024-05-09T10:37:47.265Z,100379.69
2024-05-09T10:40:26.478Z,100382.50
2024-05-09T10:43:04.503Z,100379.69
2024-05-09T10:45:39.542Z,100376.84
2024-05-09T10:48:10.243Z,100372.78
2024-05-09T10:50:44.156Z,100361.84
2024-05-09T10:53:15.354Z,100357.78
2024-05-09T10:55:46.696Z,100352.13
2024-05-09T10:58:18.921Z,100338.34
2024-05-09T11:00:50.381Z,100330.25
2024-05-09T11:03:19.992Z,100322.53
2024-05-09T11:05:52.114Z,100307.97
2024-05-09T11:08:25.017Z,100305.53
2024-05-09T11:10:59.985Z,100312.41
2024-05-09T11:13:30.155Z,100311.59
2024-05-09T11:16:02.040Z,100307.97
2024-05-09T11:18:35.571Z,100315.25
2024-05-09T11:21:16.111Z,100309.59
2024-05-09T11:23:48.180Z,100312.41
2024-05-09T11:26:23.371Z,100315.63
2024-05-09T11:28:53.726Z,100322.91
2024-05-09T11:31:25.300Z,100318.88
2024-05-09T11:33:55.816Z,100320.88
2024-05-09T11:36:27.352Z,100327.75
2024-05-09T11:38:58.666Z,100329.78
2024-05-09T11:41:31.825Z,100326.91
2024-05-09T11:44:00.546Z,100321.66
2024-05-09T11:46:32.470Z,100318.00
2024-05-09T11:49:01.143Z,100322.81
2024-05-09T11:51:32.573Z,100318.34
2024-05-09T11:54:04.315Z,100310.66
2024-05-09T11:56:35.713Z,100322.00
2024-05-09T11:59:04.746Z,100315.91
2024-05-09T12:01:36.130Z,100317.53
2024-05-09T12:04:05.454Z,100315.53
2024-05-09T12:06:37.072Z,100307.81
2024-05-09T12:09:11.303Z,100317.13
2024-05-09T12:11:40.015Z,100316.31
2024-05-09T12:14:11.425Z,100316.31
2024-05-09T12:16:40.133Z,100320.38
2024-05-09T12:19:11.554Z,100318.34
2024-05-09T12:21:40.174Z,100320.78
2024-05-09T12:24:17.732Z,100317.94
2024-05-09T12:26:47.203Z,100310.22
2024-05-09T12:29:18.593Z,100308.22
2024-05-09T12:31:47.252Z,100310.63
2024-05-09T12:34:19.948Z,100302.13
2024-05-09T12:36:48.810Z,100305.81
2024-05-09T12:39:22.727Z,100309.44
2024-05-09T12:41:51.359Z,100300.13
2024-05-09T12:44:22.598Z,100298.47
2024-05-09T12:46:54.066Z,100296.44
2024-05-09T12:49:24.799Z,100292.81
2024-05-09T12:51:56.214Z,100295.25
2024-05-09T12:54:27.435Z,100293.19
2024-05-09T12:56:58.701Z,100303.75
2024-05-09T12:59:27.339Z,100300.91
2024-05-09T13:02:01.115Z,100305.78
2024-05-09T13:04:29.992Z,100302.56
2024-05-09T13:07:02.684Z,100304.56
2024-05-09T13:09:35.551Z,100305.00
2024-05-09T13:12:07.227Z,100298.13
2024-05-09T13:14:35.809Z,100305.81
2024-05-09T13:17:07.387Z,100297.72
2024-05-09T13:19:35.851Z,100295.69
2024-05-09T13:22:07.462Z,100295.69
2024-05-09T13:24:38.845Z,100296.50
2024-05-09T13:27:10.307Z,100293.66
2024-05-09T13:29:41.092Z,100288.38
2024-05-09T13:32:14.101Z,100288.38
2024-05-09T13:34:44.181Z,100287.59
2024-05-09T13:37:15.609Z,100283.97
2024-05-09T13:39:47.122Z,100284.75
2024-05-09T13:42:19.625Z,100293.28
2024-05-09T13:44:48.481Z,100294.88
2024-05-09T13:47:20.547Z,100291.22
2024-05-09T13:49:50.335Z,100286.81
2024-05-09T13:52:21.800Z,100289.63
2024-05-09T13:54:53.286Z,100296.09
2024-05-09T13:57:24.672Z,100287.59
2024-05-09T13:59:53.649Z,100290.44
2024-05-09T14:02:25.044Z,100290.44
2024-05-09T14:04:53.851Z,100284.34
2024-05-09T14:07:25.208Z,100291.25
2024-05-09T14:09:56.640Z,100291.25
2024-05-09T14:12:27.920Z,100289.63
2024-05-09T14:14:57.048Z,100291.69
2024-05-09T14:17:28.278Z,100286.78
2024-05-09T14:19:56.818Z,100286.00
2024-05-09T14:22:28.285Z,100283.97
2024-05-09T14:24:59.584Z,100278.28
2024-05-09T14:27:32.677Z,100283.16
2024-05-09T14:30:01.264Z,100278.28
2024-05-09T14:32:32.761Z,100276.28
2024-05-09T14:35:01.513Z,100281.13
2024-05-09T14:37:34.806Z,100281.13
2024-05-09T14:40:14.784Z,100281.94
2024-05-09T14:42:52.932Z,100277.91
2024-05-09T14:45:21.497Z,100282.34
2024-05-09T14:47:52.868Z,100281.53
2024-05-09T14:50:28.075Z,100283.16
2024-05-09T14:53:06.743Z,100286.00
2024-05-09T14:55:40.743Z,100295.31
2024-05-09T14:58:15.762Z,100297.34
2024-05-09T15:00:50.312Z,100300.97
2024-05-09T15:03:23.548Z,100288.84
2024-05-09T15:05:52.559Z,100289.25
2024-05-09T15:08:24.088Z,100293.69
2024-05-09T15:10:55.687Z,100293.69
2024-05-09T15:13:29.305Z,100287.63
2024-05-09T15:15:57.958Z,100286.81
2024-05-09T15:18:29.661Z,100295.31
2024-05-09T15:20:58.649Z,100293.72
2024-05-09T15:23:29.942Z,100290.88
2024-05-09T15:26:01.250Z,100290.06
2024-05-09T15:28:32.591Z,100296.16
2024-05-09T15:31:01.184Z,100289.69
2024-05-09T15:33:32.547Z,100299.41
2024-05-09T15:36:01.682Z,100293.72
2024-05-09T15:38:33.084Z,100297.00
2024-05-09T15:41:04.535Z,100303.88
2024-05-09T15:43:36.015Z,100293.75
2024-05-09T15:46:05.005Z,100299.00
2024-05-09T15:48:37.482Z,100297.41
2024-05-09T15:51:06.910Z,100305.53
2024-05-09T15:53:38.266Z,100306.31
2024-05-09T15:56:11.333Z,100306.75
2024-05-09T15:58:42.689Z,100307.97
2024-05-09T16:01:11.338Z,100308.34
2024-05-09T16:03:42.728Z,100307.56
2024-05-09T16:06:11.591Z,100300.28
2024-05-09T16:08:43.154Z,100310.00
2024-05-09T16:11:17.358Z,100305.53
2024-05-09T16:13:48.559Z,100308.78
2024-05-09T16:16:17.467Z,100315.69
2024-05-09T16:18:48.880Z,100310.00
2024-05-09T16:21:17.583Z,100320.16
2024-05-09T16:23:48.801Z,100310.03
2024-05-09T16:26:20.190Z,100314.06
2024-05-09T16:28:52.759Z,100318.94
2024-05-09T16:31:21.494Z,100319.34
2024-05-09T16:33:52.880Z,100317.72
2024-05-09T16:36:21.947Z,100323.00
2024-05-09T16:38:54.573Z,100328.66
2024-05-09T16:41:30.171Z,100327.84
2024-05-09T16:44:02.111Z,100332.72
2024-05-09T16:46:31.043Z,100330.28
2024-05-09T16:49:02.458Z,100337.13
2024-05-09T16:51:34.059Z,100334.31
2024-05-09T16:54:02.692Z,100338.34
2024-05-09T16:56:36.578Z,100336.75
2024-05-09T16:59:05.238Z,100342.44
2024-05-09T17:01:36.860Z,100344.84
2024-05-09T17:04:05.976Z,100347.69
2024-05-09T17:06:37.446Z,100343.25
2024-05-09T17:09:11.507Z,100333.13
2024-05-09T17:11:46.068Z,100330.28
2024-05-09T17:14:17.973Z,100333.53
2024-05-09T17:16:49.265Z,100328.66
2024-05-09T17:19:20.704Z,100336.75
2024-05-09T17:21:49.237Z,100340.41
2024-05-09T17:24:20.405Z,100345.25
2024-05-09T17:26:53.302Z,100340.81
2024-05-09T17:29:25.584Z,100344.06
2024-05-09T17:31:54.078Z,100347.69
2024-05-09T17:34:25.325Z,100339.59
2024-05-09T17:36:54.466Z,100337.59
2024-05-09T17:39:25.619Z,100338.81
2024-05-09T17:41:59.576Z,100341.66
2024-05-09T17:44:28.071Z,100340.81
2024-05-09T17:46:59.581Z,100340.03
2024-05-09T17:49:29.791Z,100347.69
2024-05-09T17:52:01.186Z,100344.88
2024-05-09T17:54:29.705Z,100344.88
2024-05-09T17:57:03.752Z,100339.19
2024-05-09T17:59:32.246Z,100346.06
2024-05-09T18:02:04.320Z,100343.25
2024-05-09T18:04:33.802Z,100349.72
2024-05-09T18:07:05.477Z,100350.94
2024-05-09T18:09:34.171Z,100352.16
2024-05-09T18:12:09.126Z,100353.00
2024-05-09T18:14:37.672Z,100352.56
2024-05-09T18:17:09.120Z,100356.22
2024-05-09T18:19:37.885Z,100359.03
2024-05-09T18:22:09.493Z,100364.28
2024-05-09T18:24:38.093Z,100364.28
2024-05-09T18:27:12.569Z,100359.47
2024-05-09T18:29:41.191Z,100361.88
2024-05-09T18:32:12.649Z,100363.50
2024-05-09T18:34:41.199Z,100378.88
2024-05-09T18:37:13.449Z,100373.63
2024-05-09T18:39:42.402Z,100379.31
2024-05-09T18:42:16.399Z,100376.06
2024-05-09T18:44:44.788Z,100367.16
2024-05-09T18:47:19.401Z,100366.72
2024-05-09T18:49:48.610Z,100359.88
2024-05-09T18:52:20.057Z,100356.22
2024-05-09T18:54:48.673Z,100356.22
2024-05-09T18:57:22.788Z,100358.25
2024-05-09T18:59:51.729Z,100365.13
2024-05-09T19:02:23.062Z,100361.50
2024-05-09T19:04:51.722Z,100355.00
2024-05-09T19:07:23.257Z,100357.03
2024-05-09T19:09:51.791Z,100353.78
2024-05-09T19:12:25.755Z,100344.50
2024-05-09T19:14:54.248Z,100334.38
2024-05-09T19:17:26.095Z,100337.22
2024-05-09T19:19:54.771Z,100336.41
2024-05-09T19:22:26.207Z,100333.97
2024-05-09T19:24:54.939Z,100323.88
2024-05-09T19:27:28.859Z,100325.06
2024-05-09T19:29:57.911Z,100321.88
2024-05-09T19:32:29.337Z,100320.25
2024-05-09T19:34:58.004Z,100319.84
2024-05-09T19:37:32.067Z,100317.78
2024-05-09T19:40:00.842Z,100317.00
2024-05-09T19:42:34.922Z,100313.34
2024-05-09T19:45:03.506Z,100316.59
2024-05-09T19:47:34.728Z,100315.78
2024-05-09T19:50:04.023Z,100309.31
2024-05-09T19:52:37.612Z,100297.97
2024-05-09T19:55:06.685Z,100302.84
2024-05-09T19:57:40.707Z,100301.22
2024-05-09T20:00:17.710Z,100307.28
2024-05-09T20:02:53.296Z,100308.53
2024-05-09T20:05:22.147Z,100300.81
2024-05-09T20:07:53.369Z,100307.69
2024-05-09T20:10:26.199Z,100299.19
2024-05-09T20:13:04.483Z,100295.56
2024-05-09T20:15:35.325Z,100293.13
2024-05-09T20:18:07.816Z,100298.00
2024-05-09T20:20:40.554Z,100300.81
2024-05-09T20:23:14.541Z,100304.88
2024-05-09T20:25:43.579Z,100298.00
2024-05-09T20:28:17.829Z,100295.56
2024-05-09T20:30:46.432Z,100295.94
2024-05-09T20:33:17.623Z,100291.91
2024-05-09T20:35:46.049Z,100282.59
2024-05-09T20:38:17.163Z,100283.41
2024-05-09T20:40:46.483Z,100287.06
2024-05-09T20:43:20.948Z,100290.72
2024-05-09T20:45:49.738Z,100279.38
2024-05-09T20:48:21.153Z,100278.56
2024-05-09T20:50:49.845Z,100276.56
2024-05-09T20:53:21.082Z,100274.91
2024-05-09T20:55:49.499Z,100272.91
2024-05-09T20:58:23.564Z,100262.78
2024-05-09T21:00:52.184Z,100264.78
2024-05-09T21:03:23.567Z,100262.38
2024-05-09T21:05:52.131Z,100258.72
2024-05-09T21:08:23.895Z,100261.56
2024-05-09T21:10:52.379Z,100250.66
2024-05-09T21:13:26.364Z,100255.88
2024-05-09T21:15:54.967Z,100251.84
2024-05-09T21:18:26.459Z,100254.28
2024-05-09T21:20:55.136Z,100259.94
2024-05-09T21:23:26.384Z,100253.50
2024-05-09T21:25:54.780Z,100256.72
2024-05-09T21:28:28.863Z,100257.13
2024-05-09T21:30:57.460Z,100255.50
2024-05-09T21:33:28.879Z,100255.91
2024-05-09T21:35:57.472Z,100257.13
2024-05-09T21:38:28.682Z,100249.84
2024-05-09T21:40:57.562Z,100246.22
2024-05-09T21:43:31.817Z,100251.88
2024-05-09T21:46:00.388Z,100249.44
2024-05-09T21:48:31.776Z,100254.31
2024-05-09T21:51:00.390Z,100247.81
2024-05-09T21:53:32.333Z,100246.22
2024-05-09T21:56:01.803Z,100240.56
2024-05-09T21:58:35.703Z,100243.41
2024-05-09T22:01:05.694Z,100237.31
2024-05-09T22:03:37.094Z,100230.47
2024-05-09T22:06:06.122Z,100234.50
2024-05-09T22:08:37.449Z,100227.22
2024-05-09T22:11:07.001Z,100228.44
2024-05-09T22:13:41.081Z,100225.59
2024-05-09T22:16:13.391Z,100226.00
2024-05-09T22:18:44.859Z,100229.22
2024-05-09T22:21:13.401Z,100220.75
2024-05-09T22:23:44.641Z,100221.16
2024-05-09T22:26:13.192Z,100207.41
2024-05-09T22:28:47.024Z,100205.81
2024-05-09T22:31:15.625Z,100206.19
2024-05-09T22:33:48.303Z,100201.75
2024-05-09T22:36:17.057Z,100196.09
2024-05-09T22:38:48.306Z,100198.13
2024-05-09T22:41:16.810Z,100205.00
2024-05-09T22:43:50.678Z,100193.25
2024-05-09T22:46:19.258Z,100188.81
2024-05-09T22:48:50.750Z,100188.03
2024-05-09T22:51:19.258Z,100190.03
2024-05-09T22:53:50.554Z,100190.03
2024-05-09T22:56:27.908Z,100190.84
2024-05-09T22:59:03.482Z,100181.53
2024-05-09T23:01:32.117Z,100184.38
2024-05-09T23:04:03.455Z,100175.06
2024-05-09T23:06:32.905Z,100174.28
2024-05-09T23:09:04.268Z,100162.13
2024-05-09T23:11:32.825Z,100166.19
2024-05-09T23:14:07.225Z,100156.06
2024-05-09T23:16:35.776Z,100154.47
2024-05-09T23:19:07.291Z,100156.06
2024-05-09T23:21:40.479Z,100145.19
2024-05-09T23:24:11.936Z,100145.97
2024-05-09T23:26:43.803Z,100142.75
2024-05-09T23:29:17.840Z,100142.75
2024-05-09T23:31:46.315Z,100140.31
2024-05-09T23:34:18.709Z,100146.81
2024-05-09T23:36:47.348Z,100150.00
2024-05-09T23:39:18.775Z,100144.34
2024-05-09T23:41:47.241Z,100142.75
2024-05-09T23:44:21.250Z,100148.41
2024-05-09T23:46:49.832Z,100146.81
2024-05-09T23:49:21.275Z,100146.00
2024-05-09T23:51:49.848Z,100137.50
2024-05-09T23:54:21.183Z,100148.81
2024-05-09T23:56:49.556Z,100133.06
2024-05-09T23:59:23.448Z,100131.44
